Time;durP1;ratioP1;P1;durP2;ratioP2;P2;SDS_P1;SDS_P2;PMS_P1;PMS_P2;Temp;Humidity;BMP_temperature;BMP_pressure;BME280_temperature;BME280_humidity;BME280_pressure;Samples;Min_cycle;Max_cycle;Signal;HPM_P1;HPM_P2
2023/09/26 00:03:55;;;;;;;1304.15;627.30;;;14.90;99.90;;;;;;6239162;23;20081;-83
2023/09/26 00:06:22;;;;;;;1173.07;524.67;;;14.80;99.90;;;;;;6208468;23;20021;-83
2023/09/26 00:08:52;;;;;;;1308.38;643.95;;;14.80;99.90;;;;;;6168505;23;20448;-83
2023/09/26 00:11:19;;;;;;;1159.68;516.35;;;14.80;99.90;;;;;;6194436;23;20048;-83
2023/09/26 00:17:26;;;;;;;1178.53;517.92;;;14.80;99.90;;;;;;6221178;23;20047;-82
2023/09/26 00:19:52;;;;;;;1312.20;643.38;;;14.70;99.90;;;;;;6223233;23;20031;-83
2023/09/26 00:22:18;;;;;;;1307.00;630.33;;;14.70;99.90;;;;;;6200849;23;20016;-83
2023/09/26 00:24:43;;;;;;;1174.00;515.28;;;14.80;99.90;;;;;;6226500;23;20020;-84
2023/09/26 00:27:09;;;;;;;1310.90;633.70;;;14.70;99.90;;;;;;6202052;23;20047;-83
2023/09/26 00:29:35;;;;;;;1166.65;525.95;;;14.70;99.90;;;;;;6200970;23;20028;-83
2023/09/26 00:32:01;;;;;;;1165.45;527.45;;;15.10;99.90;;;;;;6174960;23;20021;-84
2023/09/26 00:34:28;;;;;;;1302.70;637.28;;;14.90;99.90;;;;;;6227287;23;20072;-83
2023/09/26 00:36:54;;;;;;;1304.43;632.80;;;14.80;99.90;;;;;;6201234;23;20043;-83
2023/09/26 00:39:21;;;;;;;1305.85;626.25;;;14.50;99.90;;;;;;6206572;23;20083;-83
2023/09/26 00:41:46;;;;;;;1305.05;627.17;;;14.90;99.90;;;;;;6205529;23;20023;-82
2023/09/26 00:44:12;;;;;;;1171.45;519.55;;;14.80;99.90;;;;;;6209977;23;20001;-83
2023/09/26 00:46:42;;;;;;;1314.03;643.67;;;14.50;99.90;;;;;;6235170;23;20074;-83
2023/09/26 00:49:09;;;;;;;1315.00;641.58;;;14.90;99.90;;;;;;6234610;23;20016;-83
2023/09/26 00:51:36;;;;;;;1178.85;518.50;;;14.60;99.90;;;;;;6234146;23;20052;-84
2023/09/26 00:54:03;;;;;;;1307.28;628.92;;;14.60;99.90;;;;;;6235455;23;20028;-83
2023/09/26 00:56:29;;;;;;;1174.28;519.53;;;14.40;99.90;;;;;;6233826;23;20017;-83
2023/09/26 00:58:56;;;;;;;1178.97;522.35;;;14.40;99.90;;;;;;6205317;23;20044;-83
2023/09/26 01:01:24;;;;;;;1299.90;625.55;;;14.40;99.90;;;;;;6234992;23;20021;-83
2023/09/26 01:03:50;;;;;;;1298.05;631.03;;;14.40;99.90;;;;;;6218972;23;20016;-83
2023/09/26 01:06:16;;;;;;;1295.82;622.15;;;14.80;99.90;;;;;;6254431;23;20091;-84
2023/09/26 01:08:41;;;;;;;1301.55;631.10;;;14.30;99.90;;;;;;6248299;23;20044;-83
2023/09/26 01:11:08;;;;;;;1292.78;629.22;;;14.30;99.90;;;;;;6221997;23;20078;-83
2023/09/26 01:13:34;;;;;;;1162.82;522.60;;;14.80;99.90;;;;;;6220822;23;20091;-83
2023/09/26 01:16:16;;;;;;;1165.05;522.67;;;14.30;99.90;;;;;;6252331;23;20020;-83
2023/09/26 01:18:42;;;;;;;1299.55;624.65;;;14.30;99.90;;;;;;6247856;23;20020;-83
2023/09/26 01:21:08;;;;;;;1166.20;520.20;;;14.30;99.90;;;;;;6195771;23;20027;-83
2023/09/26 01:23:36;;;;;;;1168.43;519.70;;;14.20;99.90;;;;;;6220398;23;20335;-83
2023/09/26 01:26:02;;;;;;;1177.53;519.20;;;14.20;99.90;;;;;;6219949;23;20027;-83
2023/09/26 01:28:28;;;;;;;1189.35;526.05;;;14.90;99.90;;;;;;6246876;23;20008;-83
2023/09/26 01:30:53;;;;;;;1190.38;517.50;;;14.10;99.90;;;;;;6246536;23;20091;-84
2023/09/26 01:33:21;;;;;;;1316.32;626.75;;;14.50;99.90;;;;;;6247348;23;20016;-83
2023/09/26 01:35:48;;;;;;;1322.20;626.38;;;14.00;99.90;;;;;;6220783;23;20082;-83
2023/09/26 01:38:14;;;;;;;1207.85;523.28;;;14.60;99.90;;;;;;6220156;23;20067;-83
2023/09/26 01:40:41;;;;;;;1322.88;624.53;;;14.00;99.90;;;;;;6247132;23;20008;-83
2023/09/26 01:43:07;;;;;;;1327.63;631.83;;;14.30;99.90;;;;;;6245493;23;20015;-84
2023/09/26 01:45:33;;;;;;;1208.47;515.08;;;14.20;99.90;;;;;;6214779;23;20094;-83
2023/09/26 01:47:59;;;;;;;1328.55;632.90;;;14.00;99.90;;;;;;6244284;23;20493;-83
2023/09/26 01:50:25;;;;;;;1328.78;622.88;;;14.20;99.90;;;;;;6246917;23;20066;-83
2023/09/26 01:52:50;;;;;;;1323.82;620.38;;;13.90;99.90;;;;;;6240436;23;20016;-82
2023/09/26 01:55:21;;;;;;;1331.05;630.67;;;14.30;99.90;;;;;;6246769;23;20012;-83
2023/09/26 01:57:47;;;;;;;1325.40;627.67;;;14.00;99.90;;;;;;6220191;23;20308;-83
2023/09/26 02:00:14;;;;;;;1326.60;621.47;;;13.90;99.90;;;;;;6246501;23;20016;-83
2023/09/26 02:02:45;;;;;;;1213.13;521.83;;;13.80;99.90;;;;;;6246486;23;20058;-84
2023/09/26 02:05:12;;;;;;;1314.97;609.72;;;14.00;99.90;;;;;;6219468;23;20502;-83
2023/09/26 02:07:38;;;;;;;1312.95;618.88;;;13.80;99.90;;;;;;6246136;23;20020;-83
2023/09/26 02:10:04;;;;;;;1313.07;620.22;;;13.90;99.90;;;;;;6246596;23;20366;-83
2023/09/26 02:12:31;;;;;;;1305.95;615.47;;;13.70;99.90;;;;;;6246671;23;20103;-83
2023/09/26 02:14:57;;;;;;;1301.70;617.33;;;14.30;99.90;;;;;;6246440;23;20074;-84
2023/09/26 02:17:22;;;;;;;1172.03;508.00;;;13.60;99.90;;;;;;6246249;23;20016;-83
2023/09/26 02:19:48;;;;;;;1291.32;605.20;;;13.60;99.90;;;;;;6219642;23;20392;-83
2023/09/26 02:22:14;;;;;;;1172.32;512.15;;;14.00;99.90;;;;;;6219091;23;20023;-84
2023/09/26 02:24:40;;;;;;;1295.20;617.35;;;13.90;99.90;;;;;;6246462;23;20090;-83
2023/09/26 02:27:05;;;;;;;1184.63;514.72;;;13.50;99.90;;;;;;6246165;23;20083;-83
2023/09/26 02:29:31;;;;;;;1194.53;514.65;;;13.50;99.90;;;;;;6219172;23;20023;-83
2023/09/26 02:31:56;;;;;;;1204.57;523.92;;;13.50;99.90;;;;;;6244169;23;20012;-83
2023/09/26 02:34:22;;;;;;;1321.63;625.87;;;13.80;99.90;;;;;;6246231;23;20020;-82
2023/09/26 02:36:48;;;;;;;1312.68;605.35;;;13.40;99.90;;;;;;6245913;22;20343;-83
2023/09/26 02:39:14;;;;;;;1331.93;618.50;;;13.40;99.90;;;;;;6246043;23;20023;-83
2023/09/26 02:41:40;;;;;;;1328.83;617.63;;;13.60;99.90;;;;;;6237594;23;20027;-83
2023/09/26 02:44:06;;;;;;;1229.82;519.47;;;13.60;99.90;;;;;;6219094;23;20099;-83
2023/09/26 02:46:32;;;;;;;1249.25;526.13;;;13.30;99.90;;;;;;6235817;23;20020;-83
2023/09/26 02:49:00;;;;;;;1256.03;527.53;;;13.30;99.90;;;;;;6246411;23;20334;-82
2023/09/26 02:51:29;;;;;;;1260.68;530.70;;;13.20;99.90;;;;;;6246156;23;20052;-83
2023/09/26 02:53:54;;;;;;;1275.15;535.55;;;13.20;99.90;;;;;;6246288;23;20062;-82
2023/09/26 02:56:20;;;;;;;1279.10;534.88;;;13.50;99.90;;;;;;6245720;23;20020;-84
2023/09/26 02:58:46;;;;;;;1281.65;542.20;;;13.60;99.90;;;;;;6219376;23;20424;-82
2023/09/26 03:01:19;;;;;;;1361.97;608.13;;;13.60;99.90;;;;;;6245763;23;20089;-82
2023/09/26 03:03:45;;;;;;;1280.72;535.28;;;13.70;99.90;;;;;;6218527;23;20095;-83
2023/09/26 03:06:11;;;;;;;1272.32;524.45;;;13.30;99.90;;;;;;6219151;23;20062;-84
2023/09/26 03:08:36;;;;;;;1356.00;603.20;;;13.40;99.90;;;;;;6245495;23;20062;-84
2023/09/26 03:11:03;;;;;;;1278.13;530.47;;;13.30;99.90;;;;;;6218608;23;20012;-87
2023/09/26 03:13:33;;;;;;;1356.57;602.93;;;12.80;99.90;;;;;;6245729;23;20462;-84
2023/09/26 03:15:59;;;;;;;1287.10;536.75;;;13.10;99.90;;;;;;6218472;23;20524;-83
2023/09/26 03:18:28;;;;;;;1292.65;537.42;;;12.90;99.90;;;;;;6244925;23;20016;-84
2023/09/26 03:20:54;;;;;;;1364.87;610.10;;;13.40;99.90;;;;;;6193767;23;20458;-83
2023/09/26 03:23:21;;;;;;;1362.63;607.33;;;12.80;99.90;;;;;;6219048;23;20016;-84
2023/09/26 03:25:47;;;;;;;1319.85;541.33;;;12.70;99.90;;;;;;6245739;23;20027;-83
2023/09/26 03:28:13;;;;;;;1364.33;607.07;;;12.80;99.90;;;;;;6245358;23;20023;-83
2023/09/26 03:30:43;;;;;;;1364.03;604.27;;;12.70;99.90;;;;;;6245228;23;20021;-83
2023/09/26 03:33:12;;;;;;;1367.97;604.77;;;12.60;99.90;;;;;;6218482;23;20016;-83
2023/09/26 03:35:38;;;;;;;1366.90;606.73;;;12.60;99.90;;;;;;6245929;23;20058;-83
2023/09/26 03:38:03;;;;;;;1327.50;543.70;;;13.30;99.90;;;;;;6245462;23;20020;-84
2023/09/26 03:40:29;;;;;;;1326.30;546.03;;;12.90;99.90;;;;;;6245627;23;20013;-83
2023/09/26 03:42:57;;;;;;;1365.93;606.80;;;12.60;99.90;;;;;;6245689;23;20016;-83
2023/09/26 03:45:23;;;;;;;1367.43;611.43;;;12.90;99.90;;;;;;6218220;23;20016;-83
2023/09/26 03:47:50;;;;;;;1351.47;547.43;;;13.10;99.90;;;;;;6245646;23;20028;-83
2023/09/26 03:50:16;;;;;;;1365.70;601.60;;;12.50;99.90;;;;;;6245245;23;20012;-84
2023/09/26 03:52:41;;;;;;;1358.50;590.03;;;13.00;99.90;;;;;;6193401;23;20031;-82
2023/09/26 03:55:07;;;;;;;1356.87;553.50;;;12.50;99.90;;;;;;6245293;23;20023;-83
2023/09/26 03:57:33;;;;;;;1359.40;591.43;;;12.50;99.90;;;;;;6245358;23;20150;-83
2023/09/26 04:00:00;;;;;;;1357.13;547.27;;;12.40;99.90;;;;;;6218808;23;20443;-83
2023/09/26 04:02:25;;;;;;;1370.00;560.77;;;12.40;99.90;;;;;;6245298;23;20328;-83
2023/09/26 04:04:51;;;;;;;1370.50;554.03;;;12.40;99.90;;;;;;6245321;23;20043;-83
2023/09/26 04:07:17;;;;;;;1379.13;559.23;;;13.00;99.90;;;;;;6245456;22;20379;-82
2023/09/26 04:09:42;;;;;;;1378.50;549.27;;;13.00;99.90;;;;;;6218754;23;20103;-83
2023/09/26 04:12:09;;;;;;;1357.10;594.63;;;12.30;99.90;;;;;;6245649;23;20016;-83
2023/09/26 04:14:34;;;;;;;1358.53;590.03;;;12.30;99.90;;;;;;6235917;23;20117;-83
2023/09/26 04:17:00;;;;;;;1356.80;592.77;;;12.30;99.90;;;;;;6243944;23;20020;-83
2023/09/26 04:19:26;;;;;;;1359.33;597.83;;;12.30;99.90;;;;;;6245680;23;20020;-83
2023/09/26 04:21:55;;;;;;;1357.70;591.70;;;12.30;99.90;;;;;;6245666;23;20035;-82
2023/09/26 04:24:21;;;;;;;1357.23;592.13;;;12.20;99.90;;;;;;6193087;23;20081;-83
2023/09/26 04:26:46;;;;;;;1356.03;585.30;;;12.60;99.90;;;;;;6245651;23;20431;-83
2023/09/26 04:29:13;;;;;;;1387.53;560.60;;;12.10;99.90;;;;;;6245386;23;20447;-83
2023/09/26 04:31:40;;;;;;;1386.67;556.03;;;12.60;99.90;;;;;;6218376;23;20340;-82
2023/09/26 04:34:05;;;;;;;1357.50;586.07;;;12.10;99.90;;;;;;6245738;23;20019;-83
2023/09/26 04:36:31;;;;;;;1384.40;552.00;;;12.10;99.90;;;;;;6245358;23;20382;-83
2023/09/26 04:38:57;;;;;;;1354.60;582.83;;;12.60;99.90;;;;;;6218419;23;20051;-83
2023/09/26 04:41:22;;;;;;;1358.53;590.27;;;12.50;99.90;;;;;;6245502;23;20020;-83
2023/09/26 04:43:48;;;;;;;1356.10;586.13;;;12.00;99.90;;;;;;6195087;23;20048;-84
2023/09/26 04:46:16;;;;;;;1352.90;582.87;;;12.20;99.90;;;;;;6245512;23;20016;-84
2023/09/26 04:48:43;;;;;;;1356.03;578.67;;;12.00;99.90;;;;;;6247410;23;20059;-83
2023/09/26 04:51:15;;;;;;;1392.40;560.43;;;11.90;99.90;;;;;;6246872;23;20030;-82
2023/09/26 04:53:41;;;;;;;1390.30;557.57;;;12.00;99.90;;;;;;6220181;23;20849;-83
2023/09/26 04:56:07;;;;;;;1398.43;562.47;;;12.50;99.90;;;;;;6245462;23;20087;-83
2023/09/26 04:58:33;;;;;;;1347.60;573.73;;;12.00;99.90;;;;;;6247229;23;20427;-84
2023/09/26 05:01:09;;;;;;;1351.67;585.17;;;11.90;99.90;;;;;;6219808;23;20404;-83
2023/09/26 05:03:35;;;;;;;1350.93;581.60;;;12.10;99.90;;;;;;6220041;23;20378;-82
2023/09/26 05:06:01;;;;;;;1389.37;563.60;;;12.60;99.90;;;;;;6246874;23;20022;-82
2023/09/26 05:08:26;;;;;;;1349.60;583.23;;;12.70;99.90;;;;;;6235518;23;20146;-83
2023/09/26 05:10:52;;;;;;;1349.93;583.13;;;12.10;99.90;;;;;;6219910;23;20024;-83
2023/09/26 05:13:18;;;;;;;1382.27;550.93;;;12.10;99.90;;;;;;6219965;23;20098;-83
2023/09/26 05:15:44;;;;;;;1388.67;562.33;;;12.60;99.90;;;;;;6219655;23;20024;-83
2023/09/26 05:18:09;;;;;;;1389.87;562.53;;;12.10;99.90;;;;;;6246777;23;20068;-85
2023/09/26 05:20:36;;;;;;;1389.50;559.30;;;12.10;99.90;;;;;;6219751;23;20292;-83
2023/09/26 05:23:03;;;;;;;1346.47;581.90;;;12.20;99.90;;;;;;6246906;23;20071;-83
2023/09/26 05:25:28;;;;;;;1393.20;563.93;;;12.20;99.90;;;;;;6246756;23;20056;-83
2023/09/26 05:27:54;;;;;;;1344.93;571.33;;;12.20;99.90;;;;;;6246655;23;20063;-83
2023/09/26 05:30:20;;;;;;;1392.47;565.87;;;12.90;99.90;;;;;;6246448;23;20024;-83
2023/09/26 05:32:46;;;;;;;1347.70;579.30;;;12.10;99.90;;;;;;6214904;23;20055;-83
2023/09/26 05:35:11;;;;;;;1349.20;581.17;;;12.90;99.90;;;;;;6234401;23;20342;-84
2023/09/26 05:37:37;;;;;;;1385.43;558.97;;;12.70;99.90;;;;;;6246277;23;20370;-83
2023/09/26 05:40:09;;;;;;;1386.60;564.03;;;12.60;99.90;;;;;;6219477;23;20016;-83
2023/09/26 05:42:35;;;;;;;1384.70;562.23;;;12.10;99.90;;;;;;6219512;23;20020;-83
2023/09/26 05:45:03;;;;;;;1387.70;556.73;;;12.30;99.90;;;;;;6246429;23;20046;-83
2023/09/26 05:47:29;;;;;;;1388.20;560.53;;;12.10;99.90;;;;;;6219258;23;20308;-83
2023/09/26 05:49:54;;;;;;;1384.77;558.30;;;12.10;99.90;;;;;;6219600;23;20031;-83
2023/09/26 05:52:20;;;;;;;1346.97;580.53;;;12.10;99.90;;;;;;6219151;23;20320;-83
2023/09/26 05:54:47;;;;;;;1384.10;555.97;;;12.30;99.90;;;;;;6218883;23;20020;-83
2023/09/26 05:57:14;;;;;;;1339.77;566.50;;;12.80;99.90;;;;;;6245961;23;20051;-84
2023/09/26 05:59:40;;;;;;;1347.43;583.17;;;12.10;99.90;;;;;;6246011;23;20020;-84
2023/09/26 06:02:08;;;;;;;1389.17;560.90;;;12.80;99.90;;;;;;6219288;23;20020;-83
2023/09/26 06:04:34;;;;;;;1383.17;562.03;;;12.20;99.90;;;;;;6194271;23;20016;-83
2023/09/26 06:06:59;;;;;;;1343.43;574.50;;;12.10;99.90;;;;;;6246308;23;20027;-84
2023/09/26 06:09:25;;;;;;;1376.83;558.83;;;13.00;99.90;;;;;;6246486;23;20015;-83
2023/09/26 06:11:51;;;;;;;1344.60;583.03;;;12.90;99.90;;;;;;6219366;23;20508;-84
2023/09/26 06:14:16;;;;;;;1378.27;550.63;;;12.10;99.90;;;;;;6246612;23;20016;-84
2023/09/26 06:16:42;;;;;;;1382.47;559.00;;;12.20;99.90;;;;;;6246309;23;20439;-83
2023/09/26 06:19:08;;;;;;;1381.50;558.90;;;12.20;99.90;;;;;;6246541;23;20377;-83
2023/09/26 06:21:33;;;;;;;1342.53;574.50;;;12.80;99.90;;;;;;6219335;23;20023;-83
2023/09/26 06:23:59;;;;;;;1346.63;580.57;;;12.20;99.90;;;;;;6246113;23;20012;-84
2023/09/26 06:26:25;;;;;;;1374.47;554.37;;;12.30;99.90;;;;;;6246263;23;20020;-83
2023/09/26 06:28:51;;;;;;;1377.00;550.77;;;12.70;99.90;;;;;;6246189;23;20012;-82
2023/09/26 06:31:17;;;;;;;1383.70;558.47;;;11.90;99.90;;;;;;6245974;23;20513;-81
2023/09/26 06:33:42;;;;;;;1351.83;586.83;;;12.50;99.90;;;;;;6193681;23;20016;-82
2023/09/26 06:36:18;;;;;;;1347.27;583.83;;;12.50;99.90;;;;;;6193834;23;20027;-83
2023/09/26 06:38:43;;;;;;;;;;;12.60;99.90;;;;;;6246184;23;20155;-82
2023/09/26 06:41:09;;;;;;;1368.65;556.22;;;12.70;99.90;;;;;;6246261;23;20459;-83
2023/09/26 06:43:38;;;;;;;1354.40;590.27;;;13.00;99.90;;;;;;6236538;23;20012;-84
2023/09/26 06:46:08;;;;;;;1348.80;578.13;;;13.20;99.90;;;;;;6245602;23;20091;-83
2023/09/26 06:48:35;;;;;;;1357.03;592.20;;;12.90;99.90;;;;;;6219251;23;20020;-83
2023/09/26 06:51:02;;;;;;;1373.47;559.70;;;13.40;99.90;;;;;;6246299;23;20073;-80
2023/09/26 06:53:27;;;;;;;1361.03;600.57;;;13.10;99.90;;;;;;6245895;23;20087;-81
2023/09/26 06:56:04;;;;;;;1353.77;587.17;;;13.60;99.90;;;;;;6246255;23;20101;-82
2023/09/26 06:58:30;;;;;;;1356.23;590.67;;;13.10;99.90;;;;;;6246113;23;20016;-81
2023/09/26 07:00:56;;;;;;;1366.33;589.37;;;13.20;99.90;;;;;;6193365;23;20016;-81
2023/09/26 07:03:21;;;;;;;1346.47;542.73;;;13.60;99.90;;;;;;6219016;23;20012;-82
2023/09/26 07:05:47;;;;;;;1358.53;547.90;;;13.30;99.90;;;;;;6245731;23;20074;-81
2023/09/26 07:08:14;;;;;;;1343.67;542.47;;;13.40;99.90;;;;;;6245750;23;20024;-82
2023/09/26 07:10:40;;;;;;;1374.73;604.93;;;13.40;99.90;;;;;;6246019;23;20016;-81
2023/09/26 07:13:06;;;;;;;1355.27;548.47;;;13.50;99.90;;;;;;6245455;23;20465;-82
2023/09/26 07:15:32;;;;;;;1378.03;608.90;;;13.60;99.90;;;;;;6218259;23;20008;-81
2023/09/26 07:17:59;;;;;;;1380.23;604.77;;;13.80;99.90;;;;;;6245349;23;20335;-82
2023/09/26 07:20:28;;;;;;;1389.23;617.13;;;13.80;99.90;;;;;;6246084;23;20347;-81
2023/09/26 07:22:54;;;;;;;1407.73;571.27;;;13.80;99.90;;;;;;6218507;23;20024;-81
2023/09/26 07:25:21;;;;;;;1389.20;620.63;;;14.00;99.90;;;;;;6233427;23;20125;-85
2023/09/26 07:27:46;;;;;;;1410.93;566.70;;;14.00;99.90;;;;;;6213255;23;20016;-80
2023/09/26 07:30:13;;;;;;;1392.50;628.73;;;14.10;99.90;;;;;;6218472;23;20119;-80
2023/09/26 07:32:39;;;;;;;1394.13;566.50;;;14.10;99.90;;;;;;6245675;23;20331;-82
2023/09/26 07:35:05;;;;;;;1393.00;565.03;;;14.30;99.90;;;;;;6218687;23;20020;-83
2023/09/26 07:37:31;;;;;;;1405.13;573.37;;;14.30;99.90;;;;;;6243816;23;20016;-82
2023/09/26 07:39:57;;;;;;;1398.13;628.07;;;14.20;99.90;;;;;;6245200;23;20016;-81
2023/09/26 07:42:23;;;;;;;1405.20;634.90;;;14.50;99.90;;;;;;6245159;23;20088;-83
2023/09/26 07:44:49;;;;;;;1411.47;642.63;;;14.50;99.90;;;;;;6193622;23;20016;-82
2023/09/26 07:47:15;;;;;;;1410.70;634.50;;;14.60;99.90;;;;;;6244589;23;20457;-84
2023/09/26 07:49:40;;;;;;;1433.93;577.20;;;14.60;99.90;;;;;;6245092;23;20439;-83
2023/09/26 07:52:06;;;;;;;1428.20;574.53;;;14.70;99.90;;;;;;6218170;23;20093;-82
2023/09/26 07:54:32;;;;;;;1412.00;639.00;;;14.80;99.90;;;;;;6244916;23;20065;-82
2023/09/26 07:56:58;;;;;;;1421.03;579.47;;;14.80;99.90;;;;;;6218453;23;20103;-82
2023/09/26 07:59:24;;;;;;;1416.17;643.70;;;15.40;99.90;;;;;;6245400;23;20123;-82
2023/09/26 08:01:50;;;;;;;1419.20;644.70;;;15.50;99.90;;;;;;6245192;23;20409;-83
2023/09/26 08:04:17;;;;;;;1420.03;645.97;;;15.00;99.90;;;;;;6218377;23;20517;-81
2023/09/26 08:06:44;;;;;;;1426.40;656.90;;;15.20;99.90;;;;;;6245803;23;20020;-81
2023/09/26 08:09:10;;;;;;;1446.67;578.83;;;15.30;99.90;;;;;;6218358;23;20067;-84
2023/09/26 08:11:38;;;;;;;1452.20;590.03;;;15.60;99.90;;;;;;6218417;23;20435;-83
2023/09/26 08:14:04;;;;;;;1443.57;584.20;;;15.50;99.90;;;;;;6245288;23;20020;-84
2023/09/26 08:16:30;;;;;;;1442.47;588.50;;;15.60;99.90;;;;;;6218449;23;20035;-84
2023/09/26 08:18:56;;;;;;;1431.60;663.43;;;15.70;99.90;;;;;;6220066;23;20514;-81
2023/09/26 08:21:24;;;;;;;1451.73;582.97;;;15.80;99.90;;;;;;6220733;23;20312;-82
2023/09/26 08:23:50;;;;;;;1435.77;670.67;;;16.30;99.90;;;;;;6247007;23;20502;-83
2023/09/26 08:26:16;;;;;;;1448.40;585.57;;;16.10;99.90;;;;;;6220371;23;20343;-82
2023/09/26 08:28:41;;;;;;;1440.90;585.60;;;16.30;99.90;;;;;;6246997;23;20020;-81
2023/09/26 08:31:10;;;;;;;1437.80;587.27;;;16.30;99.90;;;;;;6220125;23;20024;-82
2023/09/26 08:33:37;;;;;;;1433.70;587.70;;;16.50;99.90;;;;;;6246834;23;20051;-82
2023/09/26 08:36:12;;;;;;;1442.30;684.33;;;16.70;99.90;;;;;;6246876;23;20016;-82
2023/09/26 08:38:38;;;;;;;1444.72;584.92;;;16.60;99.90;;;;;;6246651;23;20016;-81
2023/09/26 08:41:05;;;;;;;1444.00;591.97;;;16.70;99.90;;;;;;6246976;23;20008;-81
2023/09/26 08:43:33;;;;;;;1442.80;690.00;;;16.70;99.90;;;;;;6219686;23;20450;-81
2023/09/26 08:45:59;;;;;;;1446.83;701.37;;;16.80;99.90;;;;;;6247146;23;20012;-83
2023/09/26 08:48:24;;;;;;;1468.93;592.23;;;16.70;99.90;;;;;;6246922;23;20051;-84
2023/09/26 08:50:51;;;;;;;1472.47;590.87;;;16.80;99.90;;;;;;6245463;23;20078;-82
2023/09/26 08:53:17;;;;;;;1451.77;704.90;;;16.70;99.90;;;;;;6246744;23;20019;-83
2023/09/26 08:55:45;;;;;;;1457.10;697.07;;;16.80;99.90;;;;;;6219790;23;20020;-84
2023/09/26 08:58:12;;;;;;;1488.60;606.42;;;16.80;99.90;;;;;;6246863;23;20046;-83
2023/09/26 09:00:38;;;;;;;1478.25;595.88;;;16.80;99.90;;;;;;6246537;23;20018;-83
2023/09/26 09:03:04;;;;;;;1452.83;717.13;;;16.90;99.90;;;;;;6194858;23;20052;-83
2023/09/26 09:05:30;;;;;;;1451.23;708.27;;;16.90;99.90;;;;;;6246355;23;20484;-82
2023/09/26 09:07:55;;;;;;;1477.00;592.30;;;16.90;99.90;;;;;;6246459;23;20022;-83
2023/09/26 09:10:21;;;;;;;1452.43;719.17;;;17.00;99.90;;;;;;6194584;23;20078;-83
2023/09/26 09:12:50;;;;;;;1456.87;705.90;;;17.00;99.90;;;;;;6220099;23;20043;-82
2023/09/26 09:15:15;;;;;;;1450.83;728.17;;;17.10;99.90;;;;;;6220048;23;20339;-82
2023/09/26 09:17:45;;;;;;;1495.93;608.10;;;17.20;99.90;;;;;;6219864;23;20020;-82
2023/09/26 09:20:16;;;;;;;1455.90;723.40;;;17.40;99.90;;;;;;6246668;23;20016;-83
2023/09/26 09:22:46;;;;;;;1494.73;605.87;;;17.60;99.90;;;;;;6219445;23;20073;-83
2023/09/26 09:25:12;;;;;;;1451.40;720.73;;;17.80;99.90;;;;;;6194358;23;20024;-84
2023/09/26 09:27:43;;;;;;;1454.93;727.57;;;18.00;99.90;;;;;;6246299;23;20016;-82
2023/09/26 09:30:19;;;;;;;1452.23;719.13;;;18.20;99.90;;;;;;6246233;23;20058;-84
2023/09/26 09:32:45;;;;;;;1518.43;611.38;;;18.40;99.90;;;;;;6246772;23;20013;-83
2023/09/26 09:35:14;;;;;;;1454.10;730.10;;;18.50;99.90;;;;;;6194301;23;20020;-83
2023/09/26 09:37:47;;;;;;;1453.80;729.60;;;18.70;99.90;;;;;;6246420;23;20398;-83
2023/09/26 09:40:22;;;;;;;1520.30;615.63;;;18.70;99.90;;;;;;6246240;23;20016;-83
2023/09/26 09:42:49;;;;;;;1451.13;738.60;;;18.70;99.90;;;;;;6219671;23;20085;-86
2023/09/26 09:45:18;;;;;;;1512.97;624.10;;;18.80;99.90;;;;;;6244342;23;20012;-83
2023/09/26 09:47:45;;;;;;;1454.63;749.23;;;18.80;99.90;;;;;;6246434;23;20016;-82
2023/09/26 09:50:13;;;;;;;1449.37;743.87;;;18.90;99.90;;;;;;6194209;23;20020;-83
2023/09/26 09:52:43;;;;;;;1452.93;751.60;;;19.00;99.90;;;;;;6246311;23;20018;-83
2023/09/26 09:55:15;;;;;;;1516.03;621.90;;;19.10;99.90;;;;;;6246348;23;20044;-84
2023/09/26 09:57:45;;;;;;;1514.80;627.93;;;19.30;99.90;;;;;;6245762;23;20024;-83
2023/09/26 10:07:55;;;;;;;1457.33;764.40;;;19.90;99.90;;;;;;6215839;23;20078;-82
2023/09/26 10:10:22;;;;;;;1457.57;764.70;;;20.00;99.90;;;;;;6246466;23;20020;-81
2023/09/26 10:12:48;;;;;;;1520.55;638.78;;;20.10;99.90;;;;;;6246439;23;20065;-81
2023/09/26 10:15:16;;;;;;;1455.27;766.00;;;20.10;99.90;;;;;;6246085;23;20062;-80
2023/09/26 10:17:43;;;;;;;1520.97;636.30;;;20.30;99.90;;;;;;6245681;23;20489;-82
2023/09/26 10:20:14;;;;;;;1458.90;782.93;;;20.40;99.90;;;;;;6246007;23;20018;-81
2023/09/26 10:22:41;;;;;;;1456.53;789.60;;;20.40;99.90;;;;;;6246076;23;20024;-82
2023/09/26 10:25:23;;;;;;;1451.37;784.33;;;20.60;99.90;;;;;;6246200;23;20313;-81
2023/09/26 10:27:50;;;;;;;1508.13;634.00;;;20.70;99.90;;;;;;6246117;23;20086;-81
2023/09/26 10:30:18;;;;;;;1505.30;639.65;;;20.80;99.90;;;;;;6219406;23;20031;-81
2023/09/26 10:32:45;;;;;;;1504.00;636.75;;;20.90;99.90;;;;;;6246044;23;20012;-82
2023/09/26 10:35:13;;;;;;;1449.53;792.13;;;21.00;99.90;;;;;;6246034;23;20023;-81
2023/09/26 10:37:44;;;;;;;1507.50;646.30;;;21.10;99.90;;;;;;6245857;23;20047;-82
2023/09/26 10:40:13;;;;;;;1454.20;808.53;;;21.10;99.90;;;;;;6245157;23;20050;-83
2023/09/26 10:42:44;;;;;;;1498.68;641.92;;;21.20;99.90;;;;;;6245635;23;20323;-82
2023/09/26 10:45:11;;;;;;;1448.95;805.03;;;21.30;99.90;;;;;;6218288;23;20338;-80
2023/09/26 10:47:40;;;;;;;1499.47;645.08;;;21.30;99.90;;;;;;6246048;23;20016;-80
2023/09/26 10:50:14;;;;;;;1450.53;823.13;;;21.40;99.90;;;;;;6218617;23;20355;-80
2023/09/26 10:52:49;;;;;;;1499.40;651.78;;;21.30;99.90;;;;;;6218713;23;20412;-81
2023/09/26 10:55:19;;;;;;;1445.78;814.30;;;21.40;99.90;;;;;;6245622;23;20012;-83
2023/09/26 10:57:45;;;;;;;1443.18;817.78;;;21.50;99.90;;;;;;6245892;23;20019;-83
2023/09/26 11:00:13;;;;;;;1486.85;655.53;;;21.50;99.90;;;;;;6218397;23;20035;-83
2023/09/26 11:02:39;;;;;;;1493.20;657.58;;;21.50;99.90;;;;;;6218432;23;20354;-82
2023/09/26 11:05:08;;;;;;;1487.15;653.45;;;21.60;99.90;;;;;;6218734;23;20055;-83
2023/09/26 11:07:35;;;;;;;1482.80;654.92;;;21.50;99.90;;;;;;6218488;23;20077;-84
2023/09/26 11:10:03;;;;;;;1444.18;822.85;;;21.50;99.90;;;;;;6245523;23;20024;-82
2023/09/26 11:12:30;;;;;;;1442.90;817.10;;;21.60;99.90;;;;;;6218557;23;20016;-82
2023/09/26 11:14:56;;;;;;;1487.80;652.53;;;21.50;99.90;;;;;;6245718;23;20338;-82
2023/09/26 11:17:23;;;;;;;1477.53;655.17;;;21.50;99.90;;;;;;6217954;23;20026;-82
2023/09/26 11:19:51;;;;;;;1478.32;648.85;;;21.50;99.90;;;;;;6245665;23;20016;-83
2023/09/26 11:22:16;;;;;;;1440.93;822.33;;;21.60;99.90;;;;;;6245184;23;20451;-83
2023/09/26 11:24:42;;;;;;;1438.20;814.13;;;21.50;99.90;;;;;;6216237;23;20023;-83
2023/09/26 11:27:11;;;;;;;1444.80;827.50;;;21.50;99.90;;;;;;6245109;23;20466;-82
2023/09/26 11:29:37;;;;;;;1470.88;653.10;;;21.50;99.90;;;;;;6245417;23;20027;-83
2023/09/26 11:32:04;;;;;;;1439.43;812.03;;;21.50;99.90;;;;;;6218190;23;20331;-82
2023/09/26 11:34:30;;;;;;;1440.05;816.25;;;21.50;99.90;;;;;;6218279;23;20066;-83
2023/09/26 11:36:58;;;;;;;1437.18;821.28;;;21.60;99.90;;;;;;6245104;23;20020;-85
2023/09/26 11:39:24;;;;;;;1437.93;817.40;;;21.70;99.90;;;;;;6217895;23;20090;-82
2023/09/26 11:42:06;;;;;;;1467.30;656.47;;;21.70;99.90;;;;;;6218841;23;20028;-81
2023/09/26 11:44:32;;;;;;;1438.10;817.58;;;21.70;99.90;;;;;;6218383;23;20023;-82
2023/09/26 11:46:59;;;;;;;1460.55;652.63;;;21.60;99.90;;;;;;6244636;23;20020;-81
2023/09/26 11:49:25;;;;;;;1437.78;817.55;;;21.60;99.90;;;;;;6245444;23;20019;-82
2023/09/26 11:51:52;;;;;;;1453.55;649.53;;;21.60;99.90;;;;;;6218462;23;20012;-80
2023/09/26 11:54:18;;;;;;;1452.68;649.38;;;21.70;99.90;;;;;;6220510;23;20086;-82
2023/09/26 11:56:45;;;;;;;1448.53;641.05;;;21.70;99.90;;;;;;6220392;23;20024;-82
2023/09/26 11:59:12;;;;;;;1447.65;648.42;;;21.70;99.90;;;;;;6220423;23;20476;-83
2023/09/26 12:05:21;;;;;;;1438.18;820.67;;;21.70;99.90;;;;;;6247350;23;20070;-82
2023/09/26 12:07:47;;;;;;;1443.28;640.88;;;21.70;99.90;;;;;;6246893;23;20339;-82
2023/09/26 12:10:14;;;;;;;1439.38;827.33;;;21.70;99.90;;;;;;6247412;23;20086;-82
2023/09/26 12:12:40;;;;;;;1437.43;826.33;;;21.80;99.90;;;;;;6220555;23;20016;-82
2023/09/26 12:15:24;;;;;;;1442.25;831.88;;;21.90;99.90;;;;;;6247549;23;20499;-83